sensor_id;sensor_type;location;lat;lon;timestamp;P1;durP1;ratioP1;P2;durP2;ratioP2
72205;SDS011;60111;48.286;7.812;2022-10-31T00:01:46;16.93;;;5.35;;
72205;SDS011;60111;48.286;7.812;2022-10-31T00:04:18;14.00;;;5.25;;
72205;SDS011;60111;48.286;7.812;2022-10-31T00:06:51;8.87;;;4.80;;
72205;SDS011;60111;48.286;7.812;2022-10-31T00:09:24;17.80;;;5.37;;
72205;SDS011;60111;48.286;7.812;2022-10-31T00:11:57;12.95;;;5.00;;
72205;SDS011;60111;48.286;7.812;2022-10-31T00:14:29;12.88;;;5.25;;
72205;SDS011;60111;48.286;7.812;2022-10-31T00:17:02;16.60;;;5.17;;
72205;SDS011;60111;48.286;7.812;2022-10-31T00:19:36;12.88;;;4.60;;
72205;SDS011;60111;48.286;7.812;2022-10-31T00:22:09;10.50;;;4.28;;
72205;SDS011;60111;48.286;7.812;2022-10-31T00:24:41;9.75;;;4.67;;
72205;SDS011;60111;48.286;7.812;2022-10-31T00:27:14;10.78;;;4.95;;
72205;SDS011;60111;48.286;7.812;2022-10-31T00:29:47;15.98;;;5.42;;
72205;SDS011;60111;48.286;7.812;2022-10-31T00:32:19;14.33;;;5.30;;
72205;SDS011;60111;48.286;7.812;2022-10-31T00:34:52;9.80;;;4.50;;
72205;SDS011;60111;48.286;7.812;2022-10-31T00:37:24;9.15;;;4.50;;
72205;SDS011;60111;48.286;7.812;2022-10-31T00:39:58;15.95;;;5.30;;
72205;SDS011;60111;48.286;7.812;2022-10-31T00:42:30;17.73;;;5.25;;
72205;SDS011;60111;48.286;7.812;2022-10-31T00:45:03;14.83;;;5.17;;
72205;SDS011;60111;48.286;7.812;2022-10-31T00:47:36;10.63;;;4.83;;
72205;SDS011;60111;48.286;7.812;2022-10-31T00:50:15;10.95;;;4.83;;
72205;SDS011;60111;48.286;7.812;2022-10-31T00:55:16;10.67;;;5.07;;
72205;SDS011;60111;48.286;7.812;2022-10-31T00:57:49;13.40;;;4.53;;
72205;SDS011;60111;48.286;7.812;2022-10-31T01:00:22;9.55;;;4.85;;
72205;SDS011;60111;48.286;7.812;2022-10-31T01:02:55;12.18;;;4.83;;
72205;SDS011;60111;48.286;7.812;2022-10-31T01:05:28;9.73;;;4.92;;
72205;SDS011;60111;48.286;7.812;2022-10-31T01:08:00;13.03;;;4.67;;
72205;SDS011;60111;48.286;7.812;2022-10-31T01:10:33;17.90;;;5.05;;
72205;SDS011;60111;48.286;7.812;2022-10-31T01:13:05;12.23;;;5.28;;
72205;SDS011;60111;48.286;7.812;2022-10-31T01:15:38;10.32;;;4.85;;
72205;SDS011;60111;48.286;7.812;2022-10-31T01:18:11;12.13;;;4.62;;
72205;SDS011;60111;48.286;7.812;2022-10-31T01:20:43;13.30;;;4.90;;
72205;SDS011;60111;48.286;7.812;2022-10-31T01:23:16;13.35;;;4.95;;
72205;SDS011;60111;48.286;7.812;2022-10-31T01:25:49;10.28;;;4.90;;
72205;SDS011;60111;48.286;7.812;2022-10-31T01:28:23;8.45;;;4.72;;
72205;SDS011;60111;48.286;7.812;2022-10-31T01:30:59;12.20;;;4.60;;
72205;SDS011;60111;48.286;7.812;2022-10-31T01:33:33;10.65;;;5.25;;
72205;SDS011;60111;48.286;7.812;2022-10-31T01:36:14;9.17;;;4.73;;
72205;SDS011;60111;48.286;7.812;2022-10-31T01:38:48;9.27;;;4.60;;
72205;SDS011;60111;48.286;7.812;2022-10-31T01:41:23;10.55;;;4.78;;
72205;SDS011;60111;48.286;7.812;2022-10-31T01:43:59;10.45;;;5.22;;
72205;SDS011;60111;48.286;7.812;2022-10-31T01:46:37;13.98;;;6.30;;
72205;SDS011;60111;48.286;7.812;2022-10-31T01:49:23;12.55;;;5.42;;
72205;SDS011;60111;48.286;7.812;2022-10-31T01:52:28;12.00;;;5.33;;
72205;SDS011;60111;48.286;7.812;2022-10-31T01:55:22;11.22;;;5.42;;
72205;SDS011;60111;48.286;7.812;2022-10-31T01:58:02;10.78;;;5.62;;
72205;SDS011;60111;48.286;7.812;2022-10-31T02:00:34;11.73;;;5.73;;
72205;SDS011;60111;48.286;7.812;2022-10-31T02:03:07;10.98;;;4.92;;
72205;SDS011;60111;48.286;7.812;2022-10-31T02:05:40;7.92;;;4.60;;
72205;SDS011;60111;48.286;7.812;2022-10-31T02:10:50;10.18;;;4.67;;
72205;SDS011;60111;48.286;7.812;2022-10-31T02:13:23;10.95;;;5.00;;
72205;SDS011;60111;48.286;7.812;2022-10-31T02:15:57;10.45;;;5.28;;
72205;SDS011;60111;48.286;7.812;2022-10-31T02:18:30;13.30;;;4.60;;
72205;SDS011;60111;48.286;7.812;2022-10-31T02:27:03;13.45;;;5.25;;
72205;SDS011;60111;48.286;7.812;2022-10-31T02:29:31;9.83;;;5.00;;
72205;SDS011;60111;48.286;7.812;2022-10-31T02:35:10;9.57;;;4.60;;
72205;SDS011;60111;48.286;7.812;2022-10-31T02:38:05;12.23;;;4.50;;
72205;SDS011;60111;48.286;7.812;2022-10-31T02:44:00;8.65;;;4.87;;
72205;SDS011;60111;48.286;7.812;2022-10-31T02:46:44;8.35;;;4.80;;
72205;SDS011;60111;48.286;7.812;2022-10-31T02:49:26;12.65;;;4.60;;
72205;SDS011;60111;48.286;7.812;2022-10-31T02:51:59;9.97;;;4.93;;
72205;SDS011;60111;48.286;7.812;2022-10-31T02:54:32;8.80;;;5.08;;
72205;SDS011;60111;48.286;7.812;2022-10-31T02:57:06;11.78;;;5.28;;
72205;SDS011;60111;48.286;7.812;2022-10-31T02:59:46;10.58;;;5.47;;
72205;SDS011;60111;48.286;7.812;2022-10-31T03:02:27;11.63;;;5.55;;
72205;SDS011;60111;48.286;7.812;2022-10-31T03:05:11;11.38;;;5.40;;
72205;SDS011;60111;48.286;7.812;2022-10-31T03:07:57;11.70;;;6.10;;
72205;SDS011;60111;48.286;7.812;2022-10-31T03:10:32;9.20;;;5.37;;
72205;SDS011;60111;48.286;7.812;2022-10-31T03:13:10;10.58;;;5.20;;
72205;SDS011;60111;48.286;7.812;2022-10-31T03:15:55;12.00;;;5.83;;
72205;SDS011;60111;48.286;7.812;2022-10-31T03:18:37;8.48;;;5.42;;
72205;SDS011;60111;48.286;7.812;2022-10-31T03:21:14;11.95;;;6.05;;
72205;SDS011;60111;48.286;7.812;2022-10-31T03:23:54;9.10;;;5.03;;
72205;SDS011;60111;48.286;7.812;2022-10-31T03:26:29;10.18;;;4.85;;
72205;SDS011;60111;48.286;7.812;2022-10-31T03:29:04;13.67;;;5.00;;
72205;SDS011;60111;48.286;7.812;2022-10-31T03:34:25;14.68;;;5.22;;
72205;SDS011;60111;48.286;7.812;2022-10-31T03:37:00;12.58;;;5.00;;
72205;SDS011;60111;48.286;7.812;2022-10-31T03:39:36;12.05;;;5.50;;
72205;SDS011;60111;48.286;7.812;2022-10-31T03:42:21;11.57;;;5.78;;
72205;SDS011;60111;48.286;7.812;2022-10-31T03:45:02;6.90;;;4.40;;
72205;SDS011;60111;48.286;7.812;2022-10-31T03:47:40;10.88;;;5.30;;
72205;SDS011;60111;48.286;7.812;2022-10-31T03:50:18;9.30;;;4.40;;
72205;SDS011;60111;48.286;7.812;2022-10-31T03:52:57;12.55;;;5.67;;
72205;SDS011;60111;48.286;7.812;2022-10-31T03:55:39;9.90;;;5.17;;
72205;SDS011;60111;48.286;7.812;2022-10-31T03:58:16;9.57;;;5.33;;
72205;SDS011;60111;48.286;7.812;2022-10-31T04:00:48;12.60;;;5.42;;
72205;SDS011;60111;48.286;7.812;2022-10-31T04:03:27;9.28;;;4.78;;
72205;SDS011;60111;48.286;7.812;2022-10-31T04:06:04;8.93;;;5.25;;
72205;SDS011;60111;48.286;7.812;2022-10-31T04:08:43;8.68;;;4.75;;
72205;SDS011;60111;48.286;7.812;2022-10-31T04:11:17;12.18;;;6.03;;
72205;SDS011;60111;48.286;7.812;2022-10-31T04:13:52;12.23;;;5.55;;
72205;SDS011;60111;48.286;7.812;2022-10-31T04:16:26;10.85;;;5.58;;
72205;SDS011;60111;48.286;7.812;2022-10-31T04:18:59;13.50;;;5.87;;
72205;SDS011;60111;48.286;7.812;2022-10-31T04:21:31;9.53;;;4.72;;
72205;SDS011;60111;48.286;7.812;2022-10-31T04:24:04;7.42;;;5.00;;
72205;SDS011;60111;48.286;7.812;2022-10-31T04:26:37;9.05;;;5.70;;
72205;SDS011;60111;48.286;7.812;2022-10-31T04:29:11;11.80;;;5.95;;
72205;SDS011;60111;48.286;7.812;2022-10-31T04:31:43;10.58;;;5.28;;
72205;SDS011;60111;48.286;7.812;2022-10-31T04:34:16;10.53;;;5.33;;
72205;SDS011;60111;48.286;7.812;2022-10-31T04:36:48;12.47;;;5.75;;
72205;SDS011;60111;48.286;7.812;2022-10-31T04:39:21;10.68;;;5.67;;
72205;SDS011;60111;48.286;7.812;2022-10-31T04:41:54;8.97;;;5.43;;
72205;SDS011;60111;48.286;7.812;2022-10-31T04:44:26;12.23;;;5.72;;
72205;SDS011;60111;48.286;7.812;2022-10-31T04:46:59;9.28;;;5.40;;
72205;SDS011;60111;48.286;7.812;2022-10-31T04:49:31;10.20;;;5.47;;
72205;SDS011;60111;48.286;7.812;2022-10-31T04:52:04;12.33;;;5.45;;
72205;SDS011;60111;48.286;7.812;2022-10-31T04:54:38;15.53;;;5.90;;
72205;SDS011;60111;48.286;7.812;2022-10-31T04:57:11;11.95;;;5.28;;
72205;SDS011;60111;48.286;7.812;2022-10-31T04:59:43;12.70;;;5.55;;
72205;SDS011;60111;48.286;7.812;2022-10-31T05:02:16;9.75;;;5.37;;
72205;SDS011;60111;48.286;7.812;2022-10-31T05:04:48;9.55;;;5.22;;
72205;SDS011;60111;48.286;7.812;2022-10-31T05:07:21;10.65;;;5.47;;
72205;SDS011;60111;48.286;7.812;2022-10-31T05:09:54;8.05;;;5.10;;
72205;SDS011;60111;48.286;7.812;2022-10-31T05:12:26;13.65;;;5.80;;
72205;SDS011;60111;48.286;7.812;2022-10-31T05:14:59;11.00;;;5.80;;
72205;SDS011;60111;48.286;7.812;2022-10-31T05:17:31;10.53;;;5.62;;
72205;SDS011;60111;48.286;7.812;2022-10-31T05:20:04;9.90;;;5.58;;
72205;SDS011;60111;48.286;7.812;2022-10-31T05:22:41;12.15;;;5.62;;
72205;SDS011;60111;48.286;7.812;2022-10-31T05:25:15;8.20;;;5.83;;
72205;SDS011;60111;48.286;7.812;2022-10-31T05:27:49;13.53;;;6.77;;
72205;SDS011;60111;48.286;7.812;2022-10-31T05:30:24;11.73;;;6.10;;
72205;SDS011;60111;48.286;7.812;2022-10-31T05:32:58;12.53;;;5.97;;
72205;SDS011;60111;48.286;7.812;2022-10-31T05:35:32;14.53;;;6.65;;
72205;SDS011;60111;48.286;7.812;2022-10-31T05:38:05;9.00;;;6.87;;
72205;SDS011;60111;48.286;7.812;2022-10-31T05:40:37;11.00;;;5.78;;
72205;SDS011;60111;48.286;7.812;2022-10-31T05:43:11;10.63;;;6.67;;
72205;SDS011;60111;48.286;7.812;2022-10-31T05:45:43;12.35;;;5.60;;
72205;SDS011;60111;48.286;7.812;2022-10-31T05:48:16;9.80;;;5.63;;
72205;SDS011;60111;48.286;7.812;2022-10-31T05:50:48;13.35;;;6.90;;
72205;SDS011;60111;48.286;7.812;2022-10-31T05:53:21;9.60;;;6.25;;
72205;SDS011;60111;48.286;7.812;2022-10-31T05:55:54;8.43;;;6.20;;
72205;SDS011;60111;48.286;7.812;2022-10-31T05:58:26;9.53;;;6.42;;
72205;SDS011;60111;48.286;7.812;2022-10-31T06:00:59;19.45;;;6.75;;
72205;SDS011;60111;48.286;7.812;2022-10-31T06:03:31;13.10;;;6.53;;
72205;SDS011;60111;48.286;7.812;2022-10-31T06:06:07;14.63;;;6.92;;
72205;SDS011;60111;48.286;7.812;2022-10-31T06:08:39;15.28;;;6.67;;
72205;SDS011;60111;48.286;7.812;2022-10-31T06:11:12;9.98;;;6.72;;
72205;SDS011;60111;48.286;7.812;2022-10-31T06:13:45;15.78;;;7.65;;
72205;SDS011;60111;48.286;7.812;2022-10-31T06:16:17;11.70;;;6.67;;
72205;SDS011;60111;48.286;7.812;2022-10-31T06:18:50;16.45;;;7.30;;
72205;SDS011;60111;48.286;7.812;2022-10-31T06:21:24;11.40;;;6.50;;
72205;SDS011;60111;48.286;7.812;2022-10-31T06:23:57;16.50;;;7.37;;
72205;SDS011;60111;48.286;7.812;2022-10-31T06:26:29;16.30;;;7.50;;
72205;SDS011;60111;48.286;7.812;2022-10-31T06:29:02;11.95;;;7.05;;
72205;SDS011;60111;48.286;7.812;2022-10-31T06:31:35;13.80;;;7.80;;
72205;SDS011;60111;48.286;7.812;2022-10-31T06:34:08;9.20;;;6.75;;
72205;SDS011;60111;48.286;7.812;2022-10-31T06:36:42;9.78;;;6.55;;
72205;SDS011;60111;48.286;7.812;2022-10-31T06:39:14;15.35;;;6.75;;
72205;SDS011;60111;48.286;7.812;2022-10-31T06:41:47;11.83;;;6.90;;
72205;SDS011;60111;48.286;7.812;2022-10-31T06:44:20;12.50;;;7.50;;
72205;SDS011;60111;48.286;7.812;2022-10-31T06:46:53;14.45;;;7.85;;
72205;SDS011;60111;48.286;7.812;2022-10-31T06:49:25;14.23;;;7.53;;
72205;SDS011;60111;48.286;7.812;2022-10-31T06:51:58;14.33;;;7.65;;
72205;SDS011;60111;48.286;7.812;2022-10-31T06:54:30;17.45;;;8.23;;
72205;SDS011;60111;48.286;7.812;2022-10-31T06:57:03;11.45;;;7.15;;
72205;SDS011;60111;48.286;7.812;2022-10-31T06:59:36;15.75;;;7.33;;
72205;SDS011;60111;48.286;7.812;2022-10-31T07:02:09;13.53;;;7.27;;
72205;SDS011;60111;48.286;7.812;2022-10-31T07:04:42;16.30;;;7.20;;
72205;SDS011;60111;48.286;7.812;2022-10-31T07:07:14;16.25;;;7.85;;
72205;SDS011;60111;48.286;7.812;2022-10-31T07:09:47;13.10;;;7.35;;
72205;SDS011;60111;48.286;7.812;2022-10-31T07:12:19;13.35;;;7.42;;
72205;SDS011;60111;48.286;7.812;2022-10-31T07:14:52;13.63;;;7.47;;
72205;SDS011;60111;48.286;7.812;2022-10-31T07:17:25;12.93;;;7.60;;
72205;SDS011;60111;48.286;7.812;2022-10-31T07:19:57;11.50;;;7.30;;
72205;SDS011;60111;48.286;7.812;2022-10-31T07:22:36;14.05;;;7.22;;
72205;SDS011;60111;48.286;7.812;2022-10-31T07:25:09;19.87;;;7.78;;
72205;SDS011;60111;48.286;7.812;2022-10-31T07:27:42;14.23;;;7.08;;
72205;SDS011;60111;48.286;7.812;2022-10-31T07:30:15;11.97;;;7.58;;
72205;SDS011;60111;48.286;7.812;2022-10-31T07:32:49;12.43;;;7.37;;
72205;SDS011;60111;48.286;7.812;2022-10-31T07:35:23;14.03;;;8.00;;
72205;SDS011;60111;48.286;7.812;2022-10-31T07:38:06;18.10;;;8.30;;
72205;SDS011;60111;48.286;7.812;2022-10-31T07:40:39;11.12;;;7.67;;
72205;SDS011;60111;48.286;7.812;2022-10-31T07:43:13;17.77;;;9.90;;
72205;SDS011;60111;48.286;7.812;2022-10-31T07:45:49;17.12;;;10.32;;
72205;SDS011;60111;48.286;7.812;2022-10-31T07:48:23;17.07;;;11.03;;
72205;SDS011;60111;48.286;7.812;2022-10-31T07:50:55;23.45;;;14.65;;
72205;SDS011;60111;48.286;7.812;2022-10-31T07:53:28;23.55;;;12.07;;
72205;SDS011;60111;48.286;7.812;2022-10-31T07:56:00;18.98;;;11.55;;
72205;SDS011;60111;48.286;7.812;2022-10-31T07:58:33;16.27;;;10.55;;
72205;SDS011;60111;48.286;7.812;2022-10-31T08:01:06;18.27;;;10.20;;
72205;SDS011;60111;48.286;7.812;2022-10-31T08:03:38;19.05;;;10.08;;
72205;SDS011;60111;48.286;7.812;2022-10-31T08:06:11;12.75;;;8.78;;
72205;SDS011;60111;48.286;7.812;2022-10-31T08:08:44;13.35;;;8.50;;
72205;SDS011;60111;48.286;7.812;2022-10-31T08:11:16;12.60;;;8.80;;
72205;SDS011;60111;48.286;7.812;2022-10-31T08:13:49;15.30;;;8.60;;
72205;SDS011;60111;48.286;7.812;2022-10-31T08:16:22;14.13;;;7.95;;
72205;SDS011;60111;48.286;7.812;2022-10-31T08:18:54;14.27;;;7.30;;
72205;SDS011;60111;48.286;7.812;2022-10-31T08:21:27;10.60;;;6.53;;
72205;SDS011;60111;48.286;7.812;2022-10-31T08:24:01;13.95;;;7.08;;
72205;SDS011;60111;48.286;7.812;2022-10-31T08:26:34;9.93;;;6.80;;
72205;SDS011;60111;48.286;7.812;2022-10-31T08:29:07;15.03;;;7.67;;
72205;SDS011;60111;48.286;7.812;2022-10-31T08:31:40;13.58;;;6.83;;
72205;SDS011;60111;48.286;7.812;2022-10-31T08:34:13;13.50;;;7.55;;
72205;SDS011;60111;48.286;7.812;2022-10-31T08:36:46;12.50;;;7.00;;
72205;SDS011;60111;48.286;7.812;2022-10-31T08:39:18;14.25;;;7.10;;
72205;SDS011;60111;48.286;7.812;2022-10-31T08:41:51;13.93;;;7.72;;
72205;SDS011;60111;48.286;7.812;2022-10-31T08:44:23;17.35;;;7.80;;
72205;SDS011;60111;48.286;7.812;2022-10-31T08:46:56;13.62;;;7.65;;
72205;SDS011;60111;48.286;7.812;2022-10-31T08:49:29;13.25;;;7.78;;
72205;SDS011;60111;48.286;7.812;2022-10-31T08:52:01;11.55;;;7.08;;
72205;SDS011;60111;48.286;7.812;2022-10-31T08:54:34;18.20;;;7.85;;
72205;SDS011;60111;48.286;7.812;2022-10-31T08:57:07;8.18;;;6.62;;
72205;SDS011;60111;48.286;7.812;2022-10-31T08:59:39;13.30;;;7.00;;
72205;SDS011;60111;48.286;7.812;2022-10-31T09:02:12;18.27;;;7.65;;
72205;SDS011;60111;48.286;7.812;2022-10-31T09:04:44;10.53;;;6.35;;
72205;SDS011;60111;48.286;7.812;2022-10-31T09:07:17;14.07;;;7.20;;
72205;SDS011;60111;48.286;7.812;2022-10-31T09:09:50;18.48;;;8.60;;
72205;SDS011;60111;48.286;7.812;2022-10-31T09:12:22;14.50;;;8.48;;
72205;SDS011;60111;48.286;7.812;2022-10-31T09:14:55;11.25;;;7.37;;
72205;SDS011;60111;48.286;7.812;2022-10-31T09:17:27;11.18;;;7.17;;
72205;SDS011;60111;48.286;7.812;2022-10-31T09:20:00;14.18;;;7.50;;
72205;SDS011;60111;48.286;7.812;2022-10-31T09:22:32;11.30;;;6.92;;
72205;SDS011;60111;48.286;7.812;2022-10-31T09:25:05;15.00;;;6.80;;
72205;SDS011;60111;48.286;7.812;2022-10-31T09:27:38;19.40;;;9.63;;
72205;SDS011;60111;48.286;7.812;2022-10-31T09:30:12;18.02;;;10.20;;
72205;SDS011;60111;48.286;7.812;2022-10-31T09:32:44;18.35;;;10.40;;
72205;SDS011;60111;48.286;7.812;2022-10-31T09:35:17;18.55;;;8.93;;
72205;SDS011;60111;48.286;7.812;2022-10-31T09:37:56;14.53;;;8.80;;
72205;SDS011;60111;48.286;7.812;2022-10-31T09:40:48;15.63;;;9.58;;
72205;SDS011;60111;48.286;7.812;2022-10-31T09:51:40;13.00;;;7.05;;
72205;SDS011;60111;48.286;7.812;2022-10-31T09:54:16;18.52;;;7.10;;
72205;SDS011;60111;48.286;7.812;2022-10-31T09:56:50;13.80;;;7.60;;
72205;SDS011;60111;48.286;7.812;2022-10-31T09:59:30;19.27;;;8.43;;
72205;SDS011;60111;48.286;7.812;2022-10-31T10:02:16;17.02;;;7.28;;
72205;SDS011;60111;48.286;7.812;2022-10-31T10:05:09;16.05;;;7.45;;
72205;SDS011;60111;48.286;7.812;2022-10-31T10:07:55;18.27;;;7.45;;
72205;SDS011;60111;48.286;7.812;2022-10-31T10:22:50;15.53;;;8.00;;
72205;SDS011;60111;48.286;7.812;2022-10-31T10:25:28;14.70;;;7.30;;
72205;SDS011;60111;48.286;7.812;2022-10-31T10:28:10;12.82;;;6.83;;
72205;SDS011;60111;48.286;7.812;2022-10-31T10:30:57;20.08;;;8.03;;
72205;SDS011;60111;48.286;7.812;2022-10-31T10:33:31;11.63;;;7.37;;
72205;SDS011;60111;48.286;7.812;2022-10-31T10:36:20;17.47;;;7.80;;
72205;SDS011;60111;48.286;7.812;2022-10-31T10:38:55;17.17;;;7.85;;
72205;SDS011;60111;48.286;7.812;2022-10-31T10:41:32;18.17;;;8.43;;
72205;SDS011;60111;48.286;7.812;2022-10-31T10:44:07;18.80;;;7.70;;
72205;SDS011;60111;48.286;7.812;2022-10-31T10:46:41;17.23;;;7.65;;
72205;SDS011;60111;48.286;7.812;2022-10-31T10:50:10;12.60;;;6.90;;
72205;SDS011;60111;48.286;7.812;2022-10-31T10:57:58;17.17;;;8.20;;
72205;SDS011;60111;48.286;7.812;2022-10-31T11:00:34;18.25;;;8.40;;
72205;SDS011;60111;48.286;7.812;2022-10-31T11:03:08;15.13;;;8.25;;
72205;SDS011;60111;48.286;7.812;2022-10-31T11:05:55;16.82;;;8.40;;
72205;SDS011;60111;48.286;7.812;2022-10-31T11:08:34;15.68;;;8.95;;
72205;SDS011;60111;48.286;7.812;2022-10-31T11:14:00;16.87;;;7.83;;
72205;SDS011;60111;48.286;7.812;2022-10-31T11:16:38;16.15;;;8.23;;
72205;SDS011;60111;48.286;7.812;2022-10-31T11:19:17;12.05;;;6.83;;
72205;SDS011;60111;48.286;7.812;2022-10-31T11:22:05;16.70;;;8.00;;
72205;SDS011;60111;48.286;7.812;2022-10-31T11:24:40;16.60;;;7.70;;
72205;SDS011;60111;48.286;7.812;2022-10-31T11:27:19;17.17;;;7.95;;
72205;SDS011;60111;48.286;7.812;2022-10-31T11:30:03;18.73;;;8.48;;
72205;SDS011;60111;48.286;7.812;2022-10-31T11:32:36;14.87;;;7.42;;
72205;SDS011;60111;48.286;7.812;2022-10-31T11:35:15;18.85;;;8.75;;
72205;SDS011;60111;48.286;7.812;2022-10-31T11:37:49;19.90;;;8.13;;
72205;SDS011;60111;48.286;7.812;2022-10-31T11:40:25;17.57;;;7.92;;
72205;SDS011;60111;48.286;7.812;2022-10-31T11:45:33;18.40;;;9.38;;
72205;SDS011;60111;48.286;7.812;2022-10-31T11:48:21;14.73;;;8.63;;
72205;SDS011;60111;48.286;7.812;2022-10-31T11:50:55;17.70;;;9.55;;
72205;SDS011;60111;48.286;7.812;2022-10-31T11:53:30;15.95;;;8.48;;
72205;SDS011;60111;48.286;7.812;2022-10-31T11:56:09;14.05;;;7.17;;
72205;SDS011;60111;48.286;7.812;2022-10-31T11:58:43;15.98;;;8.15;;
72205;SDS011;60111;48.286;7.812;2022-10-31T12:01:29;19.15;;;8.40;;
72205;SDS011;60111;48.286;7.812;2022-10-31T12:04:06;16.73;;;7.58;;
72205;SDS011;60111;48.286;7.812;2022-10-31T12:06:41;18.05;;;7.37;;
72205;SDS011;60111;48.286;7.812;2022-10-31T12:09:29;17.03;;;7.40;;
72205;SDS011;60111;48.286;7.812;2022-10-31T12:17:44;16.45;;;8.05;;
72205;SDS011;60111;48.286;7.812;2022-10-31T12:20:25;15.85;;;7.17;;
72205;SDS011;60111;48.286;7.812;2022-10-31T12:26:18;14.93;;;8.05;;
72205;SDS011;60111;48.286;7.812;2022-10-31T12:29:11;15.03;;;8.00;;
72205;SDS011;60111;48.286;7.812;2022-10-31T12:31:53;25.77;;;8.70;;
72205;SDS011;60111;48.286;7.812;2022-10-31T12:34:31;14.03;;;7.45;;
72205;SDS011;60111;48.286;7.812;2022-10-31T12:37:20;13.70;;;7.75;;
72205;SDS011;60111;48.286;7.812;2022-10-31T12:39:58;12.43;;;7.30;;
72205;SDS011;60111;48.286;7.812;2022-10-31T12:45:27;20.60;;;8.10;;
72205;SDS011;60111;48.286;7.812;2022-10-31T12:51:24;16.45;;;7.95;;
72205;SDS011;60111;48.286;7.812;2022-10-31T12:59:47;22.20;;;8.65;;
72205;SDS011;60111;48.286;7.812;2022-10-31T13:02:23;17.98;;;7.70;;
72205;SDS011;60111;48.286;7.812;2022-10-31T13:05:04;14.15;;;6.83;;
72205;SDS011;60111;48.286;7.812;2022-10-31T13:07:46;20.08;;;8.55;;
72205;SDS011;60111;48.286;7.812;2022-10-31T13:12:58;21.33;;;7.45;;
72205;SDS011;60111;48.286;7.812;2022-10-31T13:15:38;15.60;;;6.45;;
72205;SDS011;60111;48.286;7.812;2022-10-31T13:18:33;16.05;;;6.45;;
72205;SDS011;60111;48.286;7.812;2022-10-31T13:21:08;15.55;;;5.97;;
72205;SDS011;60111;48.286;7.812;2022-10-31T13:23:43;13.22;;;6.05;;
72205;SDS011;60111;48.286;7.812;2022-10-31T13:29:19;17.35;;;6.72;;
72205;SDS011;60111;48.286;7.812;2022-10-31T13:32:11;14.30;;;6.12;;
72205;SDS011;60111;48.286;7.812;2022-10-31T13:34:50;14.30;;;6.25;;
72205;SDS011;60111;48.286;7.812;2022-10-31T13:45:30;15.80;;;6.37;;
72205;SDS011;60111;48.286;7.812;2022-10-31T13:50:57;16.30;;;5.53;;
72205;SDS011;60111;48.286;7.812;2022-10-31T13:53:39;15.70;;;6.70;;
72205;SDS011;60111;48.286;7.812;2022-10-31T13:56:20;13.62;;;6.15;;
72205;SDS011;60111;48.286;7.812;2022-10-31T14:01:51;22.65;;;7.17;;
72205;SDS011;60111;48.286;7.812;2022-10-31T14:04:38;21.90;;;7.27;;
72205;SDS011;60111;48.286;7.812;2022-10-31T14:07:10;16.53;;;6.37;;
72205;SDS011;60111;48.286;7.812;2022-10-31T14:09:53;15.90;;;7.30;;
72205;SDS011;60111;48.286;7.812;2022-10-31T14:12:40;23.95;;;7.83;;
72205;SDS011;60111;48.286;7.812;2022-10-31T14:15:18;17.45;;;7.78;;
72205;SDS011;60111;48.286;7.812;2022-10-31T14:17:56;19.97;;;8.83;;
72205;SDS011;60111;48.286;7.812;2022-10-31T14:20:41;17.65;;;8.23;;
72205;SDS011;60111;48.286;7.812;2022-10-31T14:31:53;21.67;;;9.40;;
72205;SDS011;60111;48.286;7.812;2022-10-31T14:34:33;17.12;;;8.73;;
72205;SDS011;60111;48.286;7.812;2022-10-31T14:37:18;23.83;;;8.90;;
72205;SDS011;60111;48.286;7.812;2022-10-31T14:45:49;14.43;;;7.80;;
72205;SDS011;60111;48.286;7.812;2022-10-31T14:51:23;15.83;;;8.15;;
72205;SDS011;60111;48.286;7.812;2022-10-31T14:53:58;19.30;;;7.15;;
72205;SDS011;60111;48.286;7.812;2022-10-31T14:56:35;13.27;;;7.63;;
72205;SDS011;60111;48.286;7.812;2022-10-31T14:59:17;17.03;;;6.87;;
72205;SDS011;60111;48.286;7.812;2022-10-31T15:02:23;18.60;;;7.17;;
72205;SDS011;60111;48.286;7.812;2022-10-31T15:04:28;14.47;;;7.45;;
72205;SDS011;60111;48.286;7.812;2022-10-31T15:07:08;12.45;;;7.35;;
72205;SDS011;60111;48.286;7.812;2022-10-31T15:09:44;22.73;;;7.78;;
72205;SDS011;60111;48.286;7.812;2022-10-31T15:12:31;15.50;;;6.97;;
72205;SDS011;60111;48.286;7.812;2022-10-31T15:15:17;11.60;;;6.00;;
72205;SDS011;60111;48.286;7.812;2022-10-31T15:17:57;14.53;;;7.03;;
72205;SDS011;60111;48.286;7.812;2022-10-31T15:20:28;14.33;;;7.15;;
72205;SDS011;60111;48.286;7.812;2022-10-31T15:23:03;15.72;;;8.13;;
72205;SDS011;60111;48.286;7.812;2022-10-31T15:25:36;26.35;;;11.60;;
72205;SDS011;60111;48.286;7.812;2022-10-31T15:28:15;22.42;;;10.30;;
72205;SDS011;60111;48.286;7.812;2022-10-31T15:30:51;16.95;;;8.75;;
72205;SDS011;60111;48.286;7.812;2022-10-31T15:33:29;16.02;;;8.03;;
72205;SDS011;60111;48.286;7.812;2022-10-31T15:36:03;15.58;;;8.80;;
72205;SDS011;60111;48.286;7.812;2022-10-31T15:38:36;15.65;;;7.95;;
72205;SDS011;60111;48.286;7.812;2022-10-31T15:41:47;13.15;;;6.37;;
72205;SDS011;60111;48.286;7.812;2022-10-31T15:43:54;16.57;;;7.40;;
72205;SDS011;60111;48.286;7.812;2022-10-31T15:46:28;19.75;;;7.78;;
72205;SDS011;60111;48.286;7.812;2022-10-31T15:49:02;18.73;;;8.50;;
72205;SDS011;60111;48.286;7.812;2022-10-31T15:51:34;17.57;;;8.05;;
72205;SDS011;60111;48.286;7.812;2022-10-31T15:54:10;12.00;;;6.70;;
72205;SDS011;60111;48.286;7.812;2022-10-31T15:56:44;18.02;;;7.58;;
72205;SDS011;60111;48.286;7.812;2022-10-31T15:59:23;15.55;;;7.70;;
72205;SDS011;60111;48.286;7.812;2022-10-31T16:02:03;14.58;;;6.83;;
72205;SDS011;60111;48.286;7.812;2022-10-31T16:04:37;15.30;;;6.97;;
72205;SDS011;60111;48.286;7.812;2022-10-31T16:07:12;13.05;;;6.92;;
72205;SDS011;60111;48.286;7.812;2022-10-31T16:09:59;21.27;;;8.25;;
72205;SDS011;60111;48.286;7.812;2022-10-31T16:12:41;14.63;;;7.15;;
72205;SDS011;60111;48.286;7.812;2022-10-31T16:15:16;12.15;;;7.78;;
72205;SDS011;60111;48.286;7.812;2022-10-31T16:17:51;22.15;;;8.53;;
72205;SDS011;60111;48.286;7.812;2022-10-31T16:20:25;15.35;;;7.60;;
72205;SDS011;60111;48.286;7.812;2022-10-31T16:23:01;12.50;;;6.78;;
72205;SDS011;60111;48.286;7.812;2022-10-31T16:25:35;18.48;;;7.72;;
72205;SDS011;60111;48.286;7.812;2022-10-31T16:28:14;28.98;;;15.38;;
72205;SDS011;60111;48.286;7.812;2022-10-31T16:30:49;25.57;;;12.47;;
72205;SDS011;60111;48.286;7.812;2022-10-31T16:33:27;27.33;;;11.00;;
72205;SDS011;60111;48.286;7.812;2022-10-31T16:39:02;29.10;;;13.60;;
72205;SDS011;60111;48.286;7.812;2022-10-31T16:41:37;23.37;;;12.40;;
72205;SDS011;60111;48.286;7.812;2022-10-31T16:44:18;27.60;;;16.05;;
72205;SDS011;60111;48.286;7.812;2022-10-31T16:47:15;30.65;;;19.05;;
72205;SDS011;60111;48.286;7.812;2022-10-31T16:49:40;32.37;;;17.53;;
72205;SDS011;60111;48.286;7.812;2022-10-31T16:52:14;33.70;;;19.67;;
72205;SDS011;60111;48.286;7.812;2022-10-31T16:54:47;41.83;;;20.87;;
72205;SDS011;60111;48.286;7.812;2022-10-31T16:57:24;46.53;;;25.62;;
72205;SDS011;60111;48.286;7.812;2022-10-31T16:59:57;44.40;;;24.35;;
72205;SDS011;60111;48.286;7.812;2022-10-31T17:02:29;54.08;;;28.67;;
72205;SDS011;60111;48.286;7.812;2022-10-31T17:05:02;50.12;;;28.02;;
72205;SDS011;60111;48.286;7.812;2022-10-31T17:07:35;49.27;;;27.23;;
72205;SDS011;60111;48.286;7.812;2022-10-31T17:10:08;52.00;;;28.80;;
72205;SDS011;60111;48.286;7.812;2022-10-31T17:12:43;45.08;;;25.48;;
72205;SDS011;60111;48.286;7.812;2022-10-31T17:15:20;37.00;;;20.62;;
72205;SDS011;60111;48.286;7.812;2022-10-31T17:17:56;24.12;;;13.00;;
72205;SDS011;60111;48.286;7.812;2022-10-31T17:20:29;20.45;;;11.40;;